Kastav — 9AA6417 — position and weather

sailwx.info

Track history (hours):
 
Tides and Currents Weather Stations Pressure Air Temp Water Temp Dewpoint Dewpoint Depression Visibility Wind Speed Wind Dir Waves Ship Positions

Kastav

Last reported at 2017-May-19 00:30 UTC. Time now 2017-Jul-28 08:40 UTC.
Position N 25°29' W 079°35'.
Warning: this ship's position is months out of date.

Length 195 m; draft 8 m.

Type: Ship. MMSI: 238257000.

Date/timePositionNaut miles runAvg speedWind from/ knotsBaromVisibWave heightAir tempDewpointWater temp
2017-May-19 00:30N 25°29' W 079°35'510.6
2017-May-19 00:00N 25°34' W 079°34'510.7
2017-May-18 23:30N 25°39' W 079°34'510.6
2017-May-18 23:00N 25°44' W 079°33'511.2
2017-May-18 22:30N 25°50' W 079°31'611.3
2017-May-18 22:01N 25°55' W 079°31'711.4
2017-May-18 21:23N 26°02' W 079°29'411.8
2017-May-18 21:00N 26°07' W 079°29'611.8
2017-May-18 20:30N 26°13' W 079°28'47212.5
2017-May-17 06:42N 33°30' W 076°03'4 9.5
2017-May-17 06:15N 33°34' W 076°01'9 9.7
2017-May-17 05:18N 33°42' W 075°56'310.0
2017-May-17 04:58N 33°45' W 075°55'18010.5
2017-May-16 11:46N 36°45' W 075°40'414.2
2017-May-16 11:30N 36°47' W 075°44'714.1
2017-May-16 11:00N 36°51' W 075°51'714.2
2017-May-16 10:31N 36°56' W 075°57'510.8
2017-May-16 10:00N 36°60' W 076°02'713.7
2017-May-16 09:29N 37°06' W 076°07'712.8
2017-May-16 08:59N 37°12' W 076°09'713.0
2017-May-16 08:28N 37°19' W 076°06'3512.3
2017-May-16 05:38N 37°53' W 076°10'213.6
2017-May-16 05:29N 37°55' W 076°10'713.5
2017-May-16 05:00N 38°01' W 076°13'914.0
2017-May-16 04:23N 38°10' W 076°14'613.8
2017-May-16 03:55N 38°16' W 076°17'2911.4
2017-May-16 01:25N 38°44' W 076°26'613.7
2017-May-16 00:57N 38°50' W 076°25'713.9
2017-May-16 00:28N 38°57' W 076°24'612.0
2017-May-16 00:00N 39°02' W 076°23'611.2
2017-May-15 23:26N 39°08' W 076°24'511.0
2017-May-15 22:58N 39°12' W 076°29'5 9.0
2017-May-15 22:27N 39°15' W 076°34'2 0.0
2017-May-14 04:18N 39°16' W 076°35'0 0.0
2017-May-14 03:57N 39°16' W 076°35'0 0.0
2017-May-14 03:30N 39°16' W 076°35'0 0.3
2017-May-14 03:00N 39°17' W 076°35'1 2.9
2017-May-14 02:30N 39°15' W 076°34'3 5.5
2017-May-14 02:00N 39°13' W 076°32'5 9.8
2017-May-14 01:30N 39°11' W 076°26'612.2
2017-May-14 01:00N 39°05' W 076°24'611.4
2017-May-14 00:30N 38°59' W 076°23'812.1
2017-May-13 23:52N 38°52' W 076°24'5111.8
2017-May-13 19:30N 38°01' W 076°12'6111.6
2017-May-13 14:15N 37°01' W 076°03'3 4.4
2017-May-13 13:30N 36°58' W 076°03'1012.3
2017-May-13 12:40N 37°00' W 076°15'510.1
2017-May-13 12:11N 36°57' W 076°20'1 7.7
2017-May-13 12:00N 36°56' W 076°20'4 7.5
2017-May-13 11:30N 36°52' W 076°20'3 5.5
2017-May-13 11:00N 36°50' W 076°18'2 3.7
2017-May-13 10:30N 36°48' W 076°17'1 1.1
2017-May-13 10:00N 36°48' W 076°18'0 0.1
2017-May-13 09:30N 36°48' W 076°18'0 0.0
2017-May-13 09:00N 36°48' W 076°18'0 0.0
2017-May-13 08:30N 36°48' W 076°18'0 0.0
2017-May-13 08:00N 36°48' W 076°18'0 0.0
2017-May-13 07:30N 36°48' W 076°18'0 0.0
2017-May-13 06:59N 36°48' W 076°18'0 0.0
2017-May-13 06:30N 36°48' W 076°18'0 0.0
2017-May-13 05:59N 36°48' W 076°18'0 0.0
2017-May-13 05:30N 36°48' W 076°18'0 0.0
2017-May-13 05:00N 36°48' W 076°18'0 0.0
2017-May-13 04:30N 36°48' W 076°18'0 0.0
2017-May-13 04:00N 36°48' W 076°18'0 0.0
2017-May-13 03:30N 36°48' W 076°18'0 0.0
2017-May-13 03:00N 36°48' W 076°18'0 0.0
2017-May-13 02:30N 36°48' W 076°18'0 0.0
2017-May-13 01:59N 36°48' W 076°18'0 0.0
2017-May-13 01:29N 36°48' W 076°18'0 0.0
2017-May-13 01:00N 36°48' W 076°18'0 0.0
2017-May-13 00:30N 36°48' W 076°18'0 0.0
2017-May-13 00:00N 36°48' W 076°18'0 0.0
2017-May-12 23:30N 36°48' W 076°18'0 0.0
2017-May-12 23:00N 36°48' W 076°18'0 0.0
2017-May-12 22:30N 36°48' W 076°18'0 0.0
2017-May-12 21:59N 36°48' W 076°18'0 0.0
2017-May-12 21:30N 36°48' W 076°18'0 0.0
2017-May-12 21:00N 36°48' W 076°18'0 0.0
2017-May-12 20:30N 36°48' W 076°18'0 0.0
2017-May-12 19:59N 36°48' W 076°18'0 0.0
2017-May-12 19:29N 36°48' W 076°18'0 0.0
2017-May-12 18:59N 36°48' W 076°18'0 0.0
2017-May-12 18:26N 36°48' W 076°18'0 0.0
2017-May-12 18:00N 36°48' W 076°18'0 0.0
2017-May-12 17:30N 36°48' W 076°18'0 0.0
2017-May-12 17:00N 36°48' W 076°18'0 0.0
2017-May-12 16:30N 36°48' W 076°18'0 0.0
2017-May-12 16:00N 36°48' W 076°18'0 0.0
2017-May-12 15:30N 36°48' W 076°18'0 0.0
2017-May-12 14:59N 36°48' W 076°18'0 0.0
2017-May-12 14:00N 36°48' W 076°18'1 1.8
2017-May-12 13:30N 36°49' W 076°17'2 4.3
2017-May-12 13:00N 36°51' W 076°18'4 8.0
2017-May-12 12:30N 36°54' W 076°20'11 9.0
2017-May-12 11:18N 36°59' W 076°08'312.1
2017-May-12 11:00N 36°58' W 076°04'510.2
2017-May-12 10:30N 36°56' W 075°57'510.5
2017-May-12 10:00N 36°53' W 075°52'612.0
2017-May-12 09:28N 36°50' W 075°46'139 9.7
2017-May-11 19:07N 34°31' W 075°51'213.4
2017-May-11 18:59N 34°30' W 075°53'713.4
2017-May-11 18:29N 34°25' W 075°59'613.4
2017-May-11 18:00N 34°22' W 076°05'713.3
2017-May-11 17:30N 34°17' W 076°12'713.2
2017-May-11 17:00N 34°13' W 076°18'713.3
2017-May-11 16:30N 34°09' W 076°24'1313.5
2017-May-11 15:31N 34°01' W 076°37'013.8
2017-May-11 15:30N 34°01' W 076°37'713.5
2017-May-11 15:00N 33°56' W 076°43'1313.4
2017-May-11 14:00N 33°48' W 076°56'713.6
2017-May-11 13:30N 33°44' W 077°02'714.0
2017-May-11 13:00N 33°39' W 077°09'714.0
2017-May-11 12:29N 33°35' W 077°16'713.9
2017-May-11 12:00N 33°31' W 077°22'813.9
2017-May-11 11:24N 33°26' W 077°30'13 0.4
2017-May-10 02:14N 33°21' W 077°44'  
Track history (hours):
 
Tides and Currents Weather Stations Pressure Air Temp Water Temp Dewpoint Dewpoint Depression Visibility Wind Speed Wind Dir Waves Ship Positions

Kastav

Last reported at 2017-May-19 00:30 UTC. Time now 2017-Jul-28 08:40 UTC.
Position N 25°29' W 079°35'.
Warning: this ship's position is months out of date.

Length 195 m; draft 8 m.

Type: Ship. MMSI: 238257000.

Date/timePositionNaut miles runAvg speedWind from/ knotsBaromVisibWave heightAir tempDewpointWater temp
2017-May-19 00:30N 25°29' W 079°35'510.6
2017-May-19 00:00N 25°34' W 079°34'510.7
2017-May-18 23:30N 25°39' W 079°34'510.6
2017-May-18 23:00N 25°44' W 079°33'511.2
2017-May-18 22:30N 25°50' W 079°31'611.3
2017-May-18 22:01N 25°55' W 079°31'711.4
2017-May-18 21:23N 26°02' W 079°29'411.8
2017-May-18 21:00N 26°07' W 079°29'611.8
2017-May-18 20:30N 26°13' W 079°28'47212.5
2017-May-17 06:42N 33°30' W 076°03'4 9.5
2017-May-17 06:15N 33°34' W 076°01'9 9.7
2017-May-17 05:18N 33°42' W 075°56'310.0
2017-May-17 04:58N 33°45' W 075°55'18010.5
2017-May-16 11:46N 36°45' W 075°40'414.2
2017-May-16 11:30N 36°47' W 075°44'714.1
2017-May-16 11:00N 36°51' W 075°51'714.2
2017-May-16 10:31N 36°56' W 075°57'510.8
2017-May-16 10:00N 36°60' W 076°02'713.7
2017-May-16 09:29N 37°06' W 076°07'712.8
2017-May-16 08:59N 37°12' W 076°09'713.0
2017-May-16 08:28N 37°19' W 076°06'3512.3
2017-May-16 05:38N 37°53' W 076°10'213.6
2017-May-16 05:29N 37°55' W 076°10'713.5
2017-May-16 05:00N 38°01' W 076°13'914.0
2017-May-16 04:23N 38°10' W 076°14'613.8
2017-May-16 03:55N 38°16' W 076°17'2911.4
2017-May-16 01:25N 38°44' W 076°26'613.7
2017-May-16 00:57N 38°50' W 076°25'713.9
2017-May-16 00:28N 38°57' W 076°24'612.0
2017-May-16 00:00N 39°02' W 076°23'611.2
2017-May-15 23:26N 39°08' W 076°24'511.0
2017-May-15 22:58N 39°12' W 076°29'5 9.0
2017-May-15 22:27N 39°15' W 076°34'2 0.0
2017-May-14 04:18N 39°16' W 076°35'0 0.0
2017-May-14 03:57N 39°16' W 076°35'0 0.0
2017-May-14 03:30N 39°16' W 076°35'0 0.3
2017-May-14 03:00N 39°17' W 076°35'1 2.9
2017-May-14 02:30N 39°15' W 076°34'3 5.5
2017-May-14 02:00N 39°13' W 076°32'5 9.8
2017-May-14 01:30N 39°11' W 076°26'612.2
2017-May-14 01:00N 39°05' W 076°24'611.4
2017-May-14 00:30N 38°59' W 076°23'812.1
2017-May-13 23:52N 38°52' W 076°24'5111.8
2017-May-13 19:30N 38°01' W 076°12'6111.6
2017-May-13 14:15N 37°01' W 076°03'3 4.4
2017-May-13 13:30N 36°58' W 076°03'1012.3
2017-May-13 12:40N 37°00' W 076°15'510.1
2017-May-13 12:11N 36°57' W 076°20'1 7.7
2017-May-13 12:00N 36°56' W 076°20'4 7.5
2017-May-13 11:30N 36°52' W 076°20'3 5.5
2017-May-13 11:00N 36°50' W 076°18'2 3.7
2017-May-13 10:30N 36°48' W 076°17'1 1.1
2017-May-13 10:00N 36°48' W 076°18'0 0.1
2017-May-13 09:30N 36°48' W 076°18'0 0.0
2017-May-13 09:00N 36°48' W 076°18'0 0.0
2017-May-13 08:30N 36°48' W 076°18'0 0.0
2017-May-13 08:00N 36°48' W 076°18'0 0.0
2017-May-13 07:30N 36°48' W 076°18'0 0.0
2017-May-13 06:59N 36°48' W 076°18'0 0.0
2017-May-13 06:30N 36°48' W 076°18'0 0.0
2017-May-13 05:59N 36°48' W 076°18'0 0.0
2017-May-13 05:30N 36°48' W 076°18'0 0.0
2017-May-13 05:00N 36°48' W 076°18'0 0.0
2017-May-13 04:30N 36°48' W 076°18'0 0.0
2017-May-13 04:00N 36°48' W 076°18'0 0.0
2017-May-13 03:30N 36°48' W 076°18'0 0.0
2017-May-13 03:00N 36°48' W 076°18'0 0.0
2017-May-13 02:30N 36°48' W 076°18'0 0.0
2017-May-13 01:59N 36°48' W 076°18'0 0.0
2017-May-13 01:29N 36°48' W 076°18'0 0.0
2017-May-13 01:00N 36°48' W 076°18'0 0.0
2017-May-13 00:30N 36°48' W 076°18'0 0.0
2017-May-13 00:00N 36°48' W 076°18'0 0.0
2017-May-12 23:30N 36°48' W 076°18'0 0.0
2017-May-12 23:00N 36°48' W 076°18'0 0.0
2017-May-12 22:30N 36°48' W 076°18'0 0.0
2017-May-12 21:59N 36°48' W 076°18'0 0.0
2017-May-12 21:30N 36°48' W 076°18'0 0.0
2017-May-12 21:00N 36°48' W 076°18'0 0.0
2017-May-12 20:30N 36°48' W 076°18'0 0.0
2017-May-12 19:59N 36°48' W 076°18'0 0.0
2017-May-12 19:29N 36°48' W 076°18'0 0.0
2017-May-12 18:59N 36°48' W 076°18'0 0.0
2017-May-12 18:26N 36°48' W 076°18'0 0.0
2017-May-12 18:00N 36°48' W 076°18'0 0.0
2017-May-12 17:30N 36°48' W 076°18'0 0.0
2017-May-12 17:00N 36°48' W 076°18'0 0.0
2017-May-12 16:30N 36°48' W 076°18'0 0.0
2017-May-12 16:00N 36°48' W 076°18'0 0.0
2017-May-12 15:30N 36°48' W 076°18'0 0.0
2017-May-12 14:59N 36°48' W 076°18'0 0.0
2017-May-12 14:00N 36°48' W 076°18'1 1.8
2017-May-12 13:30N 36°49' W 076°17'2 4.3
2017-May-12 13:00N 36°51' W 076°18'4 8.0
2017-May-12 12:30N 36°54' W 076°20'11 9.0
2017-May-12 11:18N 36°59' W 076°08'312.1
2017-May-12 11:00N 36°58' W 076°04'510.2
2017-May-12 10:30N 36°56' W 075°57'510.5
2017-May-12 10:00N 36°53' W 075°52'612.0
2017-May-12 09:28N 36°50' W 075°46'139 9.7
2017-May-11 19:07N 34°31' W 075°51'213.4
2017-May-11 18:59N 34°30' W 075°53'713.4
2017-May-11 18:29N 34°25' W 075°59'613.4
2017-May-11 18:00N 34°22' W 076°05'713.3
2017-May-11 17:30N 34°17' W 076°12'713.2
2017-May-11 17:00N 34°13' W 076°18'713.3
2017-May-11 16:30N 34°09' W 076°24'1313.5
2017-May-11 15:31N 34°01' W 076°37'013.8
2017-May-11 15:30N 34°01' W 076°37'713.5
2017-May-11 15:00N 33°56' W 076°43'1313.4
2017-May-11 14:00N 33°48' W 076°56'713.6
2017-May-11 13:30N 33°44' W 077°02'714.0
2017-May-11 13:00N 33°39' W 077°09'714.0
2017-May-11 12:29N 33°35' W 077°16'713.9
2017-May-11 12:00N 33°31' W 077°22'813.9
2017-May-11 11:24N 33°26' W 077°30'13 0.4
2017-May-10 02:14N 33°21' W 077°44'  

Dump ship's entire track history